Accueil
METAR-TAF:

METAR-TAF

Aéroports :

Aéroport de Saint-Étienne-Loire

Saint-Etienne, France

latitude: 45-32N, longitude: 004-18E, altitude: 404 m

Observation

Le bulletin a été fait il y a 45 minutes, à 13:30 UTC
Vent 2 kt de direction variable
Température 5°C
Humidité 70%
Pression 1030 hPa
Visibilité: 8000 m

METAR: LFMH 221330Z AUTO VRB02KT 8000 NSC 05/00 Q1030 NOSIG

Heure: 15:15 (14:15 UTC)

Prévision

Le bulletin a été fait il y a 6 heures et 15 minutes, à 08:00 UTC
Prévision valable du 22 à 09 UTC au 23 à 09 UTC
Vent 4 kt de sud/sud-est
Visibilité: 6000 m
Probabilité 40%
du 23 à 00 UTC au 23 à 09 UTC
Visibilité: 3000 m
brume

TAF: LFMH 220800Z 2209/2309 15004KT 6000 NSC PROB40 2300/2309 3000 BR

Observations et prévisions météorologiques de plus de 4000 aéroports (messages METAR et TAF).

Les stations disponibles sont représentées par des disques jaunes et rouges sur la carte.

Passer la souris dessus pour voir le nom de la station.

Cliquer dessus pour voir les observations et prévisions météorologiques.

Pour changer de carte: cliquez sur les boutons verts avec une croix noire pour zoomer, sur le bouton vert avec un tiret pour effectuer un zoom arrière, ou sur les flèches vertes pour les cartes adjacentes.


METAR-TAF: